C S Victory — HOZK — position and weather

sailwx.info

Track history (hours):
 
Tides and Currents Weather Stations Pressure Air Temp Water Temp Dewpoint Dewpoint Depression Visibility Wind Speed Wind Dir Waves Ship Positions

C S Victory

Last reported at 2018-Feb-14 18:12 UTC. Time now 2018-Feb-22 01:10 UTC.
Position S 24°45' E 152°30'.

Length 177 m; draft 9.9 m.

Type: Cargo ship. MMSI: 351093000.

Date/timePositionNaut miles runAvg speedWind from/ knotsBaromVisibWave heightAir tempDewpointWater temp
2018-Feb-14 18:12S 24°45' E 152°30'166 4.8
2018-Feb-13 07:36S 27°16' E 153°48'810.0
2018-Feb-13 06:46S 27°25' E 153°48'3 9.9
2018-Feb-13 06:25S 27°28' E 153°48'5 9.7
2018-Feb-13 05:57S 27°33' E 153°48'4 9.8
2018-Feb-13 05:30S 27°37' E 153°48'510.0
2018-Feb-13 05:00S 27°42' E 153°48'510.1
2018-Feb-13 04:30S 27°47' E 153°48'510.5
2018-Feb-13 04:00S 27°52' E 153°48'510.6
2018-Feb-13 03:30S 27°58' E 153°48'510.7
2018-Feb-13 03:00S 28°03' E 153°48'510.9
2018-Feb-13 02:30S 28°08' E 153°48'510.8
2018-Feb-13 02:00S 28°14' E 153°48'510.5
2018-Feb-13 01:30S 28°19' E 153°48'510.2
2018-Feb-13 01:00S 28°24' E 153°48'510.8
2018-Feb-13 00:30S 28°30' E 153°48'611.4
2018-Feb-13 00:00S 28°35' E 153°48'611.2
2018-Feb-12 23:30S 28°41' E 153°48'23911.2
2018-Feb-12 02:06S 32°34' E 152°46'113.2
2018-Feb-12 01:59S 32°35' E 152°45'613.2
2018-Feb-12 01:30S 32°41' E 152°43'712.9
2018-Feb-12 00:59S 32°47' E 152°40'612.9
2018-Feb-12 00:30S 32°53' E 152°38'713.1
2018-Feb-12 00:00S 32°59' E 152°36'713.5
2018-Feb-11 23:30S 33°06' E 152°33'40112.3
2018-Feb-10 14:53S 38°47' E 148°12'6414.5
2018-Feb-10 10:30S 39°10' E 146°56'713.9
2018-Feb-10 10:00S 39°13' E 146°48'913.9
2018-Feb-10 09:21S 39°16' E 146°36'4013.7
2018-Feb-10 06:27S 39°15' E 145°45'714.0
2018-Feb-10 05:59S 39°15' E 145°37'6613.6
2018-Feb-10 01:09S 39°12' E 144°12'212.8
2018-Feb-10 00:59S 39°12' E 144°09'1212.9
2018-Feb-10 00:05S 39°12' E 143°54'113.0
2018-Feb-09 23:59S 39°12' E 143°53'612.8
2018-Feb-09 23:30S 39°12' E 143°45'  
Track history (hours):
 
Tides and Currents Weather Stations Pressure Air Temp Water Temp Dewpoint Dewpoint Depression Visibility Wind Speed Wind Dir Waves Ship Positions

C S Victory

Last reported at 2018-Feb-14 18:12 UTC. Time now 2018-Feb-22 01:10 UTC.
Position S 24°45' E 152°30'.

Length 177 m; draft 9.9 m.

Type: Cargo ship. MMSI: 351093000.

Date/timePositionNaut miles runAvg speedWind from/ knotsBaromVisibWave heightAir tempDewpointWater temp
2018-Feb-14 18:12S 24°45' E 152°30'166 4.8
2018-Feb-13 07:36S 27°16' E 153°48'810.0
2018-Feb-13 06:46S 27°25' E 153°48'3 9.9
2018-Feb-13 06:25S 27°28' E 153°48'5 9.7
2018-Feb-13 05:57S 27°33' E 153°48'4 9.8
2018-Feb-13 05:30S 27°37' E 153°48'510.0
2018-Feb-13 05:00S 27°42' E 153°48'510.1
2018-Feb-13 04:30S 27°47' E 153°48'510.5
2018-Feb-13 04:00S 27°52' E 153°48'510.6
2018-Feb-13 03:30S 27°58' E 153°48'510.7
2018-Feb-13 03:00S 28°03' E 153°48'510.9
2018-Feb-13 02:30S 28°08' E 153°48'510.8
2018-Feb-13 02:00S 28°14' E 153°48'510.5
2018-Feb-13 01:30S 28°19' E 153°48'510.2
2018-Feb-13 01:00S 28°24' E 153°48'510.8
2018-Feb-13 00:30S 28°30' E 153°48'611.4
2018-Feb-13 00:00S 28°35' E 153°48'611.2
2018-Feb-12 23:30S 28°41' E 153°48'23911.2
2018-Feb-12 02:06S 32°34' E 152°46'113.2
2018-Feb-12 01:59S 32°35' E 152°45'613.2
2018-Feb-12 01:30S 32°41' E 152°43'712.9
2018-Feb-12 00:59S 32°47' E 152°40'612.9
2018-Feb-12 00:30S 32°53' E 152°38'713.1
2018-Feb-12 00:00S 32°59' E 152°36'713.5
2018-Feb-11 23:30S 33°06' E 152°33'40112.3
2018-Feb-10 14:53S 38°47' E 148°12'6414.5
2018-Feb-10 10:30S 39°10' E 146°56'713.9
2018-Feb-10 10:00S 39°13' E 146°48'913.9
2018-Feb-10 09:21S 39°16' E 146°36'4013.7
2018-Feb-10 06:27S 39°15' E 145°45'714.0
2018-Feb-10 05:59S 39°15' E 145°37'6613.6
2018-Feb-10 01:09S 39°12' E 144°12'212.8
2018-Feb-10 00:59S 39°12' E 144°09'1212.9
2018-Feb-10 00:05S 39°12' E 143°54'113.0
2018-Feb-09 23:59S 39°12' E 143°53'612.8
2018-Feb-09 23:30S 39°12' E 143°45'  

Dump ship's entire track history